Accueil
METAR-TAF:

METAR-TAF

Aéroports :

Aéroport de Lal Bahadur Shastri

Vârânaçî, Inde

latitude: 25-27N, longitude: 082-52E, altitude: 81 m

Observation

Le bulletin a été fait il y a 17 minutes, à 22:30 UTC
Vent 3 kt de nord/nord-est
Température 14°C
Humidité 94%
Pression 1014 hPa
Visibilité: 0150 m
brouillard

METAR: VEBN 262230Z 02003KT 0150 FG VV/// 14/13 Q1014 NOSIG

Heure: 04:17 (22:47 UTC)

Prévision

Le bulletin a été fait il y a 8 heures et 47 minutes, à 14:00 UTC
Prévision valable du 26 à 15 UTC au 26 à 24 UTC
Vent 3 kt de nord-ouest
Visibilité: 4000 m
Nuages épars à une hauteur de 2000 ft
Nuages fragmentés à une hauteur de 10000 ft
brume sèche
Evoluant progressivement
du 26 à 19 UTC au 26 à 21 UTC
Vent kt de nord
Visibilité: 3000 m
Nuages fragmentés à une hauteur de 10000 ft
brume sèche

TAF: VEBN 261400Z 2615/2624 32003KT 4000 HZ SCT020 BKN100 BECMG 2619/2621 00000KT 3000 HZ BKN100

Observations et prévisions météorologiques de plus de 4000 aéroports (messages METAR et TAF).

Les stations disponibles sont représentées par des disques jaunes et rouges sur la carte.

Passer la souris dessus pour voir le nom de la station.

Cliquer dessus pour voir les observations et prévisions météorologiques.

Pour changer de carte: cliquez sur les boutons verts avec une croix noire pour zoomer, sur le bouton vert avec un tiret pour effectuer un zoom arrière, ou sur les flèches vertes pour les cartes adjacentes.


METAR-TAF: